Terminal Aerodrome Forecast
Issued by NWS Atlanta, GA

Home | Current Version | Previous Version | Text Only | Print | Product List | Glossary On
Versions: 1 2 3 4 5 6 7 8 9 10 11 12 13 14 15 16 17 18 19 20
000
FTUS42 KFFC 211100
TAFCSG
TAF
KCSG 211122Z 2112/2212 33004KT 6SM BR FEW010 SCT150
     FM211400 32005KT P6SM SCT025
     FM211700 31007KT P6SM SCT045
     FM220200 30002KT P6SM SKC=

USA.gov is the U.S. government's official web portal to all federal, state and local government web resources and services.